sensor_id;sensor_type;location;lat;lon;timestamp;P1;durP1;ratioP1;P2;durP2;ratioP2
78209;SDS011;67485;48.816;9.930;2023-02-15T00:01:27;17.27;;;8.07;;
78209;SDS011;67485;48.816;9.930;2023-02-15T00:03:53;17.60;;;8.40;;
78209;SDS011;67485;48.816;9.930;2023-02-15T00:06:19;16.48;;;8.23;;
78209;SDS011;67485;48.816;9.930;2023-02-15T00:08:45;16.35;;;8.52;;
78209;SDS011;67485;48.816;9.930;2023-02-15T00:11:13;18.48;;;8.45;;
78209;SDS011;67485;48.816;9.930;2023-02-15T00:13:40;18.80;;;8.52;;
78209;SDS011;67485;48.816;9.930;2023-02-15T00:16:07;17.00;;;8.50;;
78209;SDS011;67485;48.816;9.930;2023-02-15T00:18:38;15.23;;;8.50;;
78209;SDS011;67485;48.816;9.930;2023-02-15T00:21:05;18.55;;;9.18;;
78209;SDS011;67485;48.816;9.930;2023-02-15T00:23:32;15.15;;;8.57;;
78209;SDS011;67485;48.816;9.930;2023-02-15T00:28:31;19.52;;;8.60;;
78209;SDS011;67485;48.816;9.930;2023-02-15T00:31:08;17.97;;;9.40;;
78209;SDS011;67485;48.816;9.930;2023-02-15T00:33:35;17.05;;;8.48;;
78209;SDS011;67485;48.816;9.930;2023-02-15T00:36:02;15.55;;;8.50;;
78209;SDS011;67485;48.816;9.930;2023-02-15T00:38:29;17.17;;;8.63;;
78209;SDS011;67485;48.816;9.930;2023-02-15T00:40:56;17.85;;;8.15;;
78209;SDS011;67485;48.816;9.930;2023-02-15T00:43:23;17.03;;;7.73;;
78209;SDS011;67485;48.816;9.930;2023-02-15T00:45:50;16.25;;;8.63;;
78209;SDS011;67485;48.816;9.930;2023-02-15T00:48:17;18.30;;;7.65;;
78209;SDS011;67485;48.816;9.930;2023-02-15T00:50:51;16.88;;;8.15;;
78209;SDS011;67485;48.816;9.930;2023-02-15T00:53:18;15.43;;;7.65;;
78209;SDS011;67485;48.816;9.930;2023-02-15T00:55:45;15.87;;;7.83;;
78209;SDS011;67485;48.816;9.930;2023-02-15T00:58:11;16.40;;;7.60;;
78209;SDS011;67485;48.816;9.930;2023-02-15T01:00:38;12.85;;;7.28;;
78209;SDS011;67485;48.816;9.930;2023-02-15T01:03:06;14.75;;;7.75;;
78209;SDS011;67485;48.816;9.930;2023-02-15T01:05:32;14.43;;;8.07;;
78209;SDS011;67485;48.816;9.930;2023-02-15T01:07:58;16.33;;;8.30;;
78209;SDS011;67485;48.816;9.930;2023-02-15T01:10:25;15.80;;;8.00;;
78209;SDS011;67485;48.816;9.930;2023-02-15T01:12:51;14.48;;;7.78;;
78209;SDS011;67485;48.816;9.930;2023-02-15T01:15:17;15.32;;;7.68;;
78209;SDS011;67485;48.816;9.930;2023-02-15T01:17:43;14.57;;;8.20;;
78209;SDS011;67485;48.816;9.930;2023-02-15T01:20:14;14.80;;;7.80;;
78209;SDS011;67485;48.816;9.930;2023-02-15T01:22:40;13.95;;;7.85;;
78209;SDS011;67485;48.816;9.930;2023-02-15T01:25:06;12.40;;;7.27;;
78209;SDS011;67485;48.816;9.930;2023-02-15T01:27:32;14.93;;;7.88;;
78209;SDS011;67485;48.816;9.930;2023-02-15T01:29:57;12.77;;;7.43;;
78209;SDS011;67485;48.816;9.930;2023-02-15T01:32:23;13.07;;;7.20;;
78209;SDS011;67485;48.816;9.930;2023-02-15T01:34:49;14.70;;;7.72;;
78209;SDS011;67485;48.816;9.930;2023-02-15T01:37:14;14.97;;;7.77;;
78209;SDS011;67485;48.816;9.930;2023-02-15T01:39:41;14.80;;;7.65;;
78209;SDS011;67485;48.816;9.930;2023-02-15T01:42:20;16.17;;;7.37;;
78209;SDS011;67485;48.816;9.930;2023-02-15T01:44:52;14.27;;;7.50;;
78209;SDS011;67485;48.816;9.930;2023-02-15T01:47:34;15.38;;;7.10;;
78209;SDS011;67485;48.816;9.930;2023-02-15T01:52:32;14.87;;;7.20;;
78209;SDS011;67485;48.816;9.930;2023-02-15T01:55:02;18.73;;;9.88;;
78209;SDS011;67485;48.816;9.930;2023-02-15T01:57:29;17.27;;;8.32;;
78209;SDS011;67485;48.816;9.930;2023-02-15T01:59:56;15.27;;;7.90;;
78209;SDS011;67485;48.816;9.930;2023-02-15T02:02:25;13.10;;;7.75;;
78209;SDS011;67485;48.816;9.930;2023-02-15T02:04:53;15.60;;;7.50;;
78209;SDS011;67485;48.816;9.930;2023-02-15T02:07:24;16.42;;;8.10;;
78209;SDS011;67485;48.816;9.930;2023-02-15T02:09:53;15.10;;;7.63;;
78209;SDS011;67485;48.816;9.930;2023-02-15T02:12:22;13.30;;;7.25;;
78209;SDS011;67485;48.816;9.930;2023-02-15T02:14:48;15.18;;;7.90;;
78209;SDS011;67485;48.816;9.930;2023-02-15T02:17:37;12.82;;;7.05;;
78209;SDS011;67485;48.816;9.930;2023-02-15T02:20:28;12.40;;;6.55;;
78209;SDS011;67485;48.816;9.930;2023-02-15T02:28:57;14.65;;;7.82;;
78209;SDS011;67485;48.816;9.930;2023-02-15T02:34:24;16.45;;;6.95;;
78209;SDS011;67485;48.816;9.930;2023-02-15T02:36:57;13.50;;;6.60;;
78209;SDS011;67485;48.816;9.930;2023-02-15T02:39:36;13.15;;;7.03;;
78209;SDS011;67485;48.816;9.930;2023-02-15T02:42:34;12.30;;;6.32;;
78209;SDS011;67485;48.816;9.930;2023-02-15T02:45:15;16.23;;;6.93;;
78209;SDS011;67485;48.816;9.930;2023-02-15T02:47:48;14.63;;;7.07;;
78209;SDS011;67485;48.816;9.930;2023-02-15T02:50:22;12.57;;;6.80;;
78209;SDS011;67485;48.816;9.930;2023-02-15T02:52:52;13.40;;;7.18;;
78209;SDS011;67485;48.816;9.930;2023-02-15T02:55:23;14.27;;;6.75;;
78209;SDS011;67485;48.816;9.930;2023-02-15T02:57:57;12.85;;;7.00;;
78209;SDS011;67485;48.816;9.930;2023-02-15T03:00:32;12.95;;;6.90;;
78209;SDS011;67485;48.816;9.930;2023-02-15T03:03:06;12.95;;;7.28;;
78209;SDS011;67485;48.816;9.930;2023-02-15T03:05:46;13.32;;;6.80;;
78209;SDS011;67485;48.816;9.930;2023-02-15T03:08:14;12.40;;;6.82;;
78209;SDS011;67485;48.816;9.930;2023-02-15T03:10:48;13.75;;;6.90;;
78209;SDS011;67485;48.816;9.930;2023-02-15T03:13:18;14.60;;;6.95;;
78209;SDS011;67485;48.816;9.930;2023-02-15T03:15:46;13.43;;;6.93;;
78209;SDS011;67485;48.816;9.930;2023-02-15T03:18:37;15.35;;;7.35;;
78209;SDS011;67485;48.816;9.930;2023-02-15T03:21:09;12.25;;;6.90;;
78209;SDS011;67485;48.816;9.930;2023-02-15T03:24:33;12.00;;;6.30;;
78209;SDS011;67485;48.816;9.930;2023-02-15T03:26:38;12.93;;;6.90;;
78209;SDS011;67485;48.816;9.930;2023-02-15T03:29:06;14.35;;;6.95;;
78209;SDS011;67485;48.816;9.930;2023-02-15T03:31:35;12.35;;;6.70;;
78209;SDS011;67485;48.816;9.930;2023-02-15T03:34:07;12.45;;;6.93;;
78209;SDS011;67485;48.816;9.930;2023-02-15T03:41:58;13.10;;;6.72;;
78209;SDS011;67485;48.816;9.930;2023-02-15T03:44:35;12.75;;;7.35;;
78209;SDS011;67485;48.816;9.930;2023-02-15T03:47:09;16.67;;;8.10;;
78209;SDS011;67485;48.816;9.930;2023-02-15T03:49:49;13.63;;;7.20;;
78209;SDS011;67485;48.816;9.930;2023-02-15T03:52:20;13.07;;;7.00;;
78209;SDS011;67485;48.816;9.930;2023-02-15T03:54:48;11.30;;;6.68;;
78209;SDS011;67485;48.816;9.930;2023-02-15T03:57:19;12.40;;;6.90;;
78209;SDS011;67485;48.816;9.930;2023-02-15T04:05:26;12.82;;;7.20;;
78209;SDS011;67485;48.816;9.930;2023-02-15T04:07:52;12.90;;;7.57;;
78209;SDS011;67485;48.816;9.930;2023-02-15T04:10:17;13.53;;;7.70;;
78209;SDS011;67485;48.816;9.930;2023-02-15T04:13:02;11.85;;;6.90;;
78209;SDS011;67485;48.816;9.930;2023-02-15T04:15:27;13.05;;;6.70;;
78209;SDS011;67485;48.816;9.930;2023-02-15T04:18:11;14.77;;;7.20;;
78209;SDS011;67485;48.816;9.930;2023-02-15T04:20:37;21.33;;;8.52;;
78209;SDS011;67485;48.816;9.930;2023-02-15T04:23:21;17.40;;;8.52;;
78209;SDS011;67485;48.816;9.930;2023-02-15T04:26:06;52.10;;;13.98;;
78209;SDS011;67485;48.816;9.930;2023-02-15T04:28:32;50.43;;;16.53;;
78209;SDS011;67485;48.816;9.930;2023-02-15T04:30:57;30.10;;;12.20;;
78209;SDS011;67485;48.816;9.930;2023-02-15T04:33:23;19.08;;;8.73;;
78209;SDS011;67485;48.816;9.930;2023-02-15T04:35:48;16.37;;;7.50;;
78209;SDS011;67485;48.816;9.930;2023-02-15T04:38:14;24.95;;;9.90;;
78209;SDS011;67485;48.816;9.930;2023-02-15T04:40:40;28.60;;;10.47;;
78209;SDS011;67485;48.816;9.930;2023-02-15T04:43:05;29.65;;;10.55;;
78209;SDS011;67485;48.816;9.930;2023-02-15T04:45:31;34.25;;;11.02;;
78209;SDS011;67485;48.816;9.930;2023-02-15T04:47:57;21.70;;;9.23;;
78209;SDS011;67485;48.816;9.930;2023-02-15T04:50:22;18.88;;;7.65;;
78209;SDS011;67485;48.816;9.930;2023-02-15T04:52:48;14.70;;;6.90;;
78209;SDS011;67485;48.816;9.930;2023-02-15T04:55:13;16.27;;;7.40;;
78209;SDS011;67485;48.816;9.930;2023-02-15T04:57:39;15.43;;;6.97;;
78209;SDS011;67485;48.816;9.930;2023-02-15T05:00:05;17.88;;;8.57;;
78209;SDS011;67485;48.816;9.930;2023-02-15T05:02:31;24.48;;;9.90;;
78209;SDS011;67485;48.816;9.930;2023-02-15T05:04:57;18.33;;;8.23;;
78209;SDS011;67485;48.816;9.930;2023-02-15T05:07:22;18.27;;;8.13;;
78209;SDS011;67485;48.816;9.930;2023-02-15T05:09:48;15.07;;;7.70;;
78209;SDS011;67485;48.816;9.930;2023-02-15T05:12:14;15.83;;;7.67;;
78209;SDS011;67485;48.816;9.930;2023-02-15T05:14:39;13.63;;;7.22;;
78209;SDS011;67485;48.816;9.930;2023-02-15T05:17:05;15.83;;;7.03;;
78209;SDS011;67485;48.816;9.930;2023-02-15T05:19:31;14.43;;;6.85;;
78209;SDS011;67485;48.816;9.930;2023-02-15T05:21:57;13.90;;;7.37;;
78209;SDS011;67485;48.816;9.930;2023-02-15T05:24:23;15.02;;;7.40;;
78209;SDS011;67485;48.816;9.930;2023-02-15T05:27:08;12.80;;;6.60;;
78209;SDS011;67485;48.816;9.930;2023-02-15T05:29:54;15.40;;;7.47;;
78209;SDS011;67485;48.816;9.930;2023-02-15T05:32:20;13.60;;;6.77;;
78209;SDS011;67485;48.816;9.930;2023-02-15T05:34:46;11.98;;;6.55;;
78209;SDS011;67485;48.816;9.930;2023-02-15T05:37:11;13.07;;;7.03;;
78209;SDS011;67485;48.816;9.930;2023-02-15T05:39:37;13.90;;;7.25;;
78209;SDS011;67485;48.816;9.930;2023-02-15T05:42:03;14.15;;;6.97;;
78209;SDS011;67485;48.816;9.930;2023-02-15T05:44:29;15.23;;;7.03;;
78209;SDS011;67485;48.816;9.930;2023-02-15T05:46:54;14.03;;;7.70;;
78209;SDS011;67485;48.816;9.930;2023-02-15T05:49:20;12.30;;;7.38;;
78209;SDS011;67485;48.816;9.930;2023-02-15T05:51:46;15.53;;;7.57;;
78209;SDS011;67485;48.816;9.930;2023-02-15T05:54:11;14.55;;;7.63;;
78209;SDS011;67485;48.816;9.930;2023-02-15T05:56:37;13.70;;;7.77;;
78209;SDS011;67485;48.816;9.930;2023-02-15T05:59:03;18.33;;;9.88;;
78209;SDS011;67485;48.816;9.930;2023-02-15T06:01:28;16.73;;;9.07;;
78209;SDS011;67485;48.816;9.930;2023-02-15T06:03:54;17.40;;;9.18;;
78209;SDS011;67485;48.816;9.930;2023-02-15T06:06:21;15.63;;;8.77;;
78209;SDS011;67485;48.816;9.930;2023-02-15T06:08:47;15.93;;;8.52;;
78209;SDS011;67485;48.816;9.930;2023-02-15T06:11:12;14.43;;;8.60;;
78209;SDS011;67485;48.816;9.930;2023-02-15T06:13:38;17.90;;;9.67;;
78209;SDS011;67485;48.816;9.930;2023-02-15T06:16:04;17.87;;;10.00;;
78209;SDS011;67485;48.816;9.930;2023-02-15T06:18:30;20.02;;;10.20;;
78209;SDS011;67485;48.816;9.930;2023-02-15T06:20:55;18.13;;;10.70;;
78209;SDS011;67485;48.816;9.930;2023-02-15T06:23:21;18.93;;;9.57;;
78209;SDS011;67485;48.816;9.930;2023-02-15T06:25:47;21.13;;;11.93;;
78209;SDS011;67485;48.816;9.930;2023-02-15T06:28:13;17.40;;;9.45;;
78209;SDS011;67485;48.816;9.930;2023-02-15T06:30:38;15.23;;;8.73;;
78209;SDS011;67485;48.816;9.930;2023-02-15T06:33:04;17.13;;;8.70;;
78209;SDS011;67485;48.816;9.930;2023-02-15T06:35:30;15.82;;;8.27;;
78209;SDS011;67485;48.816;9.930;2023-02-15T06:37:56;12.97;;;8.20;;
78209;SDS011;67485;48.816;9.930;2023-02-15T06:40:21;14.55;;;7.68;;
78209;SDS011;67485;48.816;9.930;2023-02-15T06:42:47;19.80;;;8.20;;
78209;SDS011;67485;48.816;9.930;2023-02-15T06:45:13;14.35;;;7.70;;
78209;SDS011;67485;48.816;9.930;2023-02-15T06:47:38;14.63;;;7.10;;
78209;SDS011;67485;48.816;9.930;2023-02-15T06:50:05;14.80;;;7.63;;
78209;SDS011;67485;48.816;9.930;2023-02-15T06:52:31;17.60;;;7.73;;
78209;SDS011;67485;48.816;9.930;2023-02-15T06:54:57;15.15;;;7.38;;
78209;SDS011;67485;48.816;9.930;2023-02-15T06:57:23;15.97;;;9.10;;
78209;SDS011;67485;48.816;9.930;2023-02-15T06:59:49;17.00;;;8.93;;
78209;SDS011;67485;48.816;9.930;2023-02-15T07:02:14;17.33;;;8.20;;
78209;SDS011;67485;48.816;9.930;2023-02-15T07:04:40;16.30;;;8.40;;
78209;SDS011;67485;48.816;9.930;2023-02-15T07:07:09;17.10;;;8.50;;
78209;SDS011;67485;48.816;9.930;2023-02-15T07:09:36;15.35;;;8.18;;
78209;SDS011;67485;48.816;9.930;2023-02-15T07:12:02;16.85;;;8.90;;
78209;SDS011;67485;48.816;9.930;2023-02-15T07:14:47;16.80;;;8.18;;
78209;SDS011;67485;48.816;9.930;2023-02-15T07:17:13;15.43;;;7.37;;
78209;SDS011;67485;48.816;9.930;2023-02-15T07:19:39;22.30;;;9.50;;
78209;SDS011;67485;48.816;9.930;2023-02-15T07:22:04;20.65;;;9.82;;
78209;SDS011;67485;48.816;9.930;2023-02-15T07:24:30;17.33;;;9.25;;
78209;SDS011;67485;48.816;9.930;2023-02-15T07:26:56;17.60;;;9.00;;
78209;SDS011;67485;48.816;9.930;2023-02-15T07:29:25;16.27;;;8.50;;
78209;SDS011;67485;48.816;9.930;2023-02-15T07:31:50;13.45;;;7.57;;
78209;SDS011;67485;48.816;9.930;2023-02-15T07:34:16;16.40;;;7.93;;
78209;SDS011;67485;48.816;9.930;2023-02-15T07:36:42;14.85;;;8.15;;
78209;SDS011;67485;48.816;9.930;2023-02-15T07:39:11;15.82;;;8.38;;
78209;SDS011;67485;48.816;9.930;2023-02-15T07:41:36;16.58;;;8.77;;
78209;SDS011;67485;48.816;9.930;2023-02-15T07:44:13;14.38;;;8.07;;
78209;SDS011;67485;48.816;9.930;2023-02-15T07:46:39;13.93;;;7.93;;
78209;SDS011;67485;48.816;9.930;2023-02-15T07:49:05;14.10;;;7.85;;
78209;SDS011;67485;48.816;9.930;2023-02-15T07:51:30;12.98;;;7.93;;
78209;SDS011;67485;48.816;9.930;2023-02-15T07:53:56;15.43;;;8.23;;
78209;SDS011;67485;48.816;9.930;2023-02-15T07:56:22;14.73;;;7.93;;
78209;SDS011;67485;48.816;9.930;2023-02-15T07:58:47;15.68;;;7.53;;
78209;SDS011;67485;48.816;9.930;2023-02-15T08:01:17;14.55;;;7.55;;
78209;SDS011;67485;48.816;9.930;2023-02-15T08:03:47;15.53;;;7.80;;
78209;SDS011;67485;48.816;9.930;2023-02-15T08:06:13;13.88;;;7.45;;
78209;SDS011;67485;48.816;9.930;2023-02-15T08:08:39;19.15;;;8.30;;
78209;SDS011;67485;48.816;9.930;2023-02-15T08:11:13;16.63;;;9.50;;
78209;SDS011;67485;48.816;9.930;2023-02-15T08:16:34;20.23;;;10.90;;
78209;SDS011;67485;48.816;9.930;2023-02-15T08:19:04;19.88;;;10.73;;
78209;SDS011;67485;48.816;9.930;2023-02-15T08:21:31;20.95;;;11.13;;
78209;SDS011;67485;48.816;9.930;2023-02-15T08:23:58;19.67;;;11.45;;
78209;SDS011;67485;48.816;9.930;2023-02-15T08:26:24;20.63;;;11.45;;
78209;SDS011;67485;48.816;9.930;2023-02-15T08:28:51;20.77;;;10.88;;
78209;SDS011;67485;48.816;9.930;2023-02-15T08:31:17;17.27;;;10.57;;
78209;SDS011;67485;48.816;9.930;2023-02-15T08:33:43;18.40;;;10.68;;
78209;SDS011;67485;48.816;9.930;2023-02-15T08:36:11;20.40;;;10.77;;
78209;SDS011;67485;48.816;9.930;2023-02-15T08:38:39;19.73;;;10.50;;
78209;SDS011;67485;48.816;9.930;2023-02-15T08:41:22;18.05;;;10.38;;
78209;SDS011;67485;48.816;9.930;2023-02-15T08:43:55;23.40;;;12.02;;
78209;SDS011;67485;48.816;9.930;2023-02-15T08:46:22;26.45;;;12.85;;
78209;SDS011;67485;48.816;9.930;2023-02-15T08:48:49;25.95;;;13.20;;
78209;SDS011;67485;48.816;9.930;2023-02-15T08:51:16;25.70;;;12.52;;
78209;SDS011;67485;48.816;9.930;2023-02-15T08:53:44;23.48;;;11.82;;
78209;SDS011;67485;48.816;9.930;2023-02-15T08:56:14;18.17;;;10.68;;
78209;SDS011;67485;48.816;9.930;2023-02-15T08:58:41;19.85;;;10.52;;
78209;SDS011;67485;48.816;9.930;2023-02-15T09:01:10;16.92;;;9.40;;
78209;SDS011;67485;48.816;9.930;2023-02-15T09:03:37;15.90;;;9.07;;
78209;SDS011;67485;48.816;9.930;2023-02-15T09:06:04;15.25;;;8.65;;
78209;SDS011;67485;48.816;9.930;2023-02-15T09:08:30;15.90;;;9.03;;
78209;SDS011;67485;48.816;9.930;2023-02-15T09:11:12;15.77;;;9.20;;
78209;SDS011;67485;48.816;9.930;2023-02-15T09:13:42;14.75;;;9.25;;
78209;SDS011;67485;48.816;9.930;2023-02-15T09:16:08;14.85;;;8.85;;
78209;SDS011;67485;48.816;9.930;2023-02-15T09:18:38;14.70;;;9.30;;
78209;SDS011;67485;48.816;9.930;2023-02-15T09:21:08;15.32;;;9.32;;
78209;SDS011;67485;48.816;9.930;2023-02-15T09:23:41;17.02;;;9.30;;
78209;SDS011;67485;48.816;9.930;2023-02-15T09:26:10;14.05;;;8.63;;
78209;SDS011;67485;48.816;9.930;2023-02-15T09:28:38;16.08;;;9.27;;
78209;SDS011;67485;48.816;9.930;2023-02-15T09:31:11;13.50;;;8.60;;
78209;SDS011;67485;48.816;9.930;2023-02-15T09:33:41;14.77;;;9.23;;
78209;SDS011;67485;48.816;9.930;2023-02-15T09:36:18;15.48;;;8.70;;
78209;SDS011;67485;48.816;9.930;2023-02-15T09:44:05;15.70;;;9.20;;
78209;SDS011;67485;48.816;9.930;2023-02-15T09:49:22;14.65;;;8.80;;
78209;SDS011;67485;48.816;9.930;2023-02-15T10:13:56;13.90;;;8.52;;
78209;SDS011;67485;48.816;9.930;2023-02-15T10:16:45;13.32;;;9.07;;
78209;SDS011;67485;48.816;9.930;2023-02-15T10:19:32;12.40;;;7.97;;
78209;SDS011;67485;48.816;9.930;2023-02-15T10:25:02;13.30;;;8.37;;
78209;SDS011;67485;48.816;9.930;2023-02-15T10:27:47;12.02;;;8.20;;
78209;SDS011;67485;48.816;9.930;2023-02-15T10:30:18;13.02;;;8.60;;
78209;SDS011;67485;48.816;9.930;2023-02-15T10:38:09;15.33;;;8.30;;
78209;SDS011;67485;48.816;9.930;2023-02-15T10:44:00;11.93;;;8.15;;
78209;SDS011;67485;48.816;9.930;2023-02-15T10:49:23;13.25;;;8.77;;
78209;SDS011;67485;48.816;9.930;2023-02-15T10:57:59;14.90;;;8.73;;
78209;SDS011;67485;48.816;9.930;2023-02-15T11:08:36;11.52;;;8.65;;
78209;SDS011;67485;48.816;9.930;2023-02-15T11:11:08;10.93;;;8.07;;
78209;SDS011;67485;48.816;9.930;2023-02-15T11:13:39;14.57;;;8.93;;
78209;SDS011;67485;48.816;9.930;2023-02-15T11:16:11;10.80;;;7.95;;
78209;SDS011;67485;48.816;9.930;2023-02-15T11:18:46;10.90;;;7.73;;
78209;SDS011;67485;48.816;9.930;2023-02-15T11:24:16;13.70;;;8.35;;
78209;SDS011;67485;48.816;9.930;2023-02-15T11:27:05;13.15;;;8.13;;
78209;SDS011;67485;48.816;9.930;2023-02-15T11:30:05;13.13;;;8.30;;
78209;SDS011;67485;48.816;9.930;2023-02-15T11:32:40;9.80;;;7.57;;
78209;SDS011;67485;48.816;9.930;2023-02-15T11:37:48;10.77;;;8.20;;
78209;SDS011;67485;48.816;9.930;2023-02-15T11:40:22;11.80;;;8.02;;
78209;SDS011;67485;48.816;9.930;2023-02-15T11:42:51;13.68;;;8.52;;
78209;SDS011;67485;48.816;9.930;2023-02-15T11:45:28;12.53;;;8.73;;
78209;SDS011;67485;48.816;9.930;2023-02-15T11:47:56;12.50;;;9.50;;
78209;SDS011;67485;48.816;9.930;2023-02-15T11:50:24;14.93;;;9.10;;
78209;SDS011;67485;48.816;9.930;2023-02-15T11:52:52;11.35;;;8.40;;
78209;SDS011;67485;48.816;9.930;2023-02-15T11:55:22;13.70;;;9.05;;
78209;SDS011;67485;48.816;9.930;2023-02-15T11:57:54;11.97;;;8.40;;
78209;SDS011;67485;48.816;9.930;2023-02-15T12:00:34;12.93;;;8.40;;
78209;SDS011;67485;48.816;9.930;2023-02-15T12:05:49;10.32;;;7.97;;
78209;SDS011;67485;48.816;9.930;2023-02-15T12:08:21;17.15;;;8.85;;
78209;SDS011;67485;48.816;9.930;2023-02-15T12:10:57;13.07;;;8.27;;
78209;SDS011;67485;48.816;9.930;2023-02-15T12:13:28;13.02;;;8.57;;
78209;SDS011;67485;48.816;9.930;2023-02-15T12:15:54;14.43;;;8.30;;
78209;SDS011;67485;48.816;9.930;2023-02-15T12:21:05;13.60;;;8.73;;
78209;SDS011;67485;48.816;9.930;2023-02-15T12:23:39;11.85;;;8.18;;
78209;SDS011;67485;48.816;9.930;2023-02-15T12:26:13;10.68;;;7.22;;
78209;SDS011;67485;48.816;9.930;2023-02-15T12:28:41;10.77;;;7.43;;
78209;SDS011;67485;48.816;9.930;2023-02-15T12:34:17;10.20;;;7.80;;
78209;SDS011;67485;48.816;9.930;2023-02-15T12:36:48;12.05;;;7.50;;
78209;SDS011;67485;48.816;9.930;2023-02-15T12:39:23;12.23;;;6.68;;
78209;SDS011;67485;48.816;9.930;2023-02-15T12:44:22;10.97;;;5.73;;
78209;SDS011;67485;48.816;9.930;2023-02-15T12:49:32;7.55;;;4.70;;
78209;SDS011;67485;48.816;9.930;2023-02-15T12:52:00;8.23;;;5.30;;
78209;SDS011;67485;48.816;9.930;2023-02-15T12:54:36;8.32;;;5.72;;
78209;SDS011;67485;48.816;9.930;2023-02-15T12:59:43;9.90;;;5.35;;
78209;SDS011;67485;48.816;9.930;2023-02-15T13:02:24;10.02;;;5.88;;
78209;SDS011;67485;48.816;9.930;2023-02-15T13:04:52;9.57;;;5.60;;
78209;SDS011;67485;48.816;9.930;2023-02-15T13:07:19;9.93;;;5.70;;
78209;SDS011;67485;48.816;9.930;2023-02-15T13:09:45;10.53;;;5.60;;
78209;SDS011;67485;48.816;9.930;2023-02-15T13:12:25;9.18;;;5.38;;
78209;SDS011;67485;48.816;9.930;2023-02-15T13:14:55;9.20;;;5.28;;
78209;SDS011;67485;48.816;9.930;2023-02-15T13:17:26;8.10;;;4.88;;
78209;SDS011;67485;48.816;9.930;2023-02-15T13:19:56;8.15;;;4.82;;
78209;SDS011;67485;48.816;9.930;2023-02-15T13:22:35;8.23;;;5.37;;
78209;SDS011;67485;48.816;9.930;2023-02-15T13:25:14;10.38;;;5.32;;
78209;SDS011;67485;48.816;9.930;2023-02-15T13:27:44;9.88;;;5.70;;
78209;SDS011;67485;48.816;9.930;2023-02-15T13:30:19;10.82;;;5.82;;
78209;SDS011;67485;48.816;9.930;2023-02-15T13:32:46;13.80;;;6.55;;
78209;SDS011;67485;48.816;9.930;2023-02-15T13:35:16;9.70;;;6.20;;
78209;SDS011;67485;48.816;9.930;2023-02-15T13:51:41;11.48;;;5.72;;
78209;SDS011;67485;48.816;9.930;2023-02-15T13:54:28;8.48;;;5.90;;
78209;SDS011;67485;48.816;9.930;2023-02-15T13:57:08;10.88;;;5.85;;
78209;SDS011;67485;48.816;9.930;2023-02-15T14:05:01;11.30;;;5.80;;
78209;SDS011;67485;48.816;9.930;2023-02-15T14:07:52;10.50;;;5.38;;
78209;SDS011;67485;48.816;9.930;2023-02-15T14:13:35;8.25;;;5.40;;
78209;SDS011;67485;48.816;9.930;2023-02-15T14:18:55;10.20;;;6.05;;
78209;SDS011;67485;48.816;9.930;2023-02-15T14:21:35;10.35;;;5.78;;
78209;SDS011;67485;48.816;9.930;2023-02-15T14:29:20;11.10;;;6.00;;
78209;SDS011;67485;48.816;9.930;2023-02-15T14:32:04;10.18;;;6.05;;
78209;SDS011;67485;48.816;9.930;2023-02-15T14:34:48;16.08;;;6.18;;
78209;SDS011;67485;48.816;9.930;2023-02-15T14:37:28;10.10;;;5.75;;
78209;SDS011;67485;48.816;9.930;2023-02-15T14:46:25;9.93;;;5.55;;
78209;SDS011;67485;48.816;9.930;2023-02-15T14:49:17;9.45;;;5.75;;
78209;SDS011;67485;48.816;9.930;2023-02-15T14:56:44;11.70;;;6.47;;
78209;SDS011;67485;48.816;9.930;2023-02-15T15:01:36;10.65;;;5.57;;
78209;SDS011;67485;48.816;9.930;2023-02-15T15:04:12;10.00;;;5.87;;
78209;SDS011;67485;48.816;9.930;2023-02-15T15:06:56;12.18;;;6.47;;
78209;SDS011;67485;48.816;9.930;2023-02-15T15:09:46;10.88;;;5.63;;
78209;SDS011;67485;48.816;9.930;2023-02-15T15:14:49;8.23;;;5.33;;
78209;SDS011;67485;48.816;9.930;2023-02-15T15:19:57;10.95;;;5.65;;
78209;SDS011;67485;48.816;9.930;2023-02-15T15:22:24;11.30;;;5.90;;
78209;SDS011;67485;48.816;9.930;2023-02-15T15:38:16;10.83;;;6.73;;
78209;SDS011;67485;48.816;9.930;2023-02-15T15:40:57;10.77;;;5.82;;
78209;SDS011;67485;48.816;9.930;2023-02-15T15:48:36;11.73;;;6.57;;
78209;SDS011;67485;48.816;9.930;2023-02-15T15:51:06;18.03;;;7.20;;
78209;SDS011;67485;48.816;9.930;2023-02-15T15:53:39;10.65;;;6.20;;
78209;SDS011;67485;48.816;9.930;2023-02-15T15:56:12;13.55;;;7.22;;
78209;SDS011;67485;48.816;9.930;2023-02-15T15:58:43;11.60;;;5.90;;
78209;SDS011;67485;48.816;9.930;2023-02-15T16:01:13;10.25;;;6.00;;
78209;SDS011;67485;48.816;9.930;2023-02-15T16:03:53;14.07;;;6.40;;
78209;SDS011;67485;48.816;9.930;2023-02-15T16:06:27;11.95;;;6.32;;
78209;SDS011;67485;48.816;9.930;2023-02-15T16:08:54;14.82;;;7.10;;
78209;SDS011;67485;48.816;9.930;2023-02-15T16:11:21;15.35;;;8.05;;
78209;SDS011;67485;48.816;9.930;2023-02-15T16:13:49;18.05;;;9.50;;
78209;SDS011;67485;48.816;9.930;2023-02-15T16:16:26;11.20;;;6.70;;
78209;SDS011;67485;48.816;9.930;2023-02-15T16:18:54;13.07;;;6.88;;
78209;SDS011;67485;48.816;9.930;2023-02-15T16:21:25;11.48;;;6.30;;
78209;SDS011;67485;48.816;9.930;2023-02-15T16:29:41;10.37;;;5.60;;
78209;SDS011;67485;48.816;9.930;2023-02-15T16:34:55;13.30;;;6.60;;
78209;SDS011;67485;48.816;9.930;2023-02-15T16:37:24;9.07;;;5.67;;
78209;SDS011;67485;48.816;9.930;2023-02-15T16:39:53;12.05;;;6.18;;
78209;SDS011;67485;48.816;9.930;2023-02-15T16:42:20;13.25;;;6.55;;
78209;SDS011;67485;48.816;9.930;2023-02-15T16:44:48;21.95;;;9.55;;
78209;SDS011;67485;48.816;9.930;2023-02-15T16:47:19;13.65;;;5.50;;
78209;SDS011;67485;48.816;9.930;2023-02-15T16:49:51;8.37;;;5.00;;
78209;SDS011;67485;48.816;9.930;2023-02-15T16:52:20;7.93;;;4.95;;
78209;SDS011;67485;48.816;9.930;2023-02-15T16:54:50;9.30;;;5.63;;
78209;SDS011;67485;48.816;9.930;2023-02-15T16:57:23;12.60;;;6.13;;
78209;SDS011;67485;48.816;9.930;2023-02-15T16:59:53;13.30;;;6.28;;
78209;SDS011;67485;48.816;9.930;2023-02-15T17:02:29;10.27;;;5.93;;
78209;SDS011;67485;48.816;9.930;2023-02-15T17:05:01;13.40;;;6.75;;
78209;SDS011;67485;48.816;9.930;2023-02-15T17:07:40;13.38;;;7.30;;
78209;SDS011;67485;48.816;9.930;2023-02-15T17:12:55;14.23;;;7.70;;
78209;SDS011;67485;48.816;9.930;2023-02-15T17:17:55;17.17;;;8.10;;
78209;SDS011;67485;48.816;9.930;2023-02-15T17:20:23;18.42;;;8.05;;
78209;SDS011;67485;48.816;9.930;2023-02-15T17:22:51;15.00;;;8.07;;
78209;SDS011;67485;48.816;9.930;2023-02-15T17:25:19;16.85;;;8.93;;
78209;SDS011;67485;48.816;9.930;2023-02-15T17:27:53;16.50;;;9.73;;
78209;SDS011;67485;48.816;9.930;2023-02-15T17:30:28;24.23;;;10.50;;
78209;SDS011;67485;48.816;9.930;2023-02-15T17:32:59;25.85;;;12.90;;
78209;SDS011;67485;48.816;9.930;2023-02-15T17:35:28;32.83;;;15.45;;
78209;SDS011;67485;48.816;9.930;2023-02-15T17:40:30;15.03;;;9.47;;
78209;SDS011;67485;48.816;9.930;2023-02-15T17:42:57;14.48;;;8.20;;
78209;SDS011;67485;48.816;9.930;2023-02-15T17:45:30;13.07;;;6.95;;
78209;SDS011;67485;48.816;9.930;2023-02-15T17:48:00;17.02;;;7.95;;
78209;SDS011;67485;48.816;9.930;2023-02-15T17:50:28;17.10;;;8.40;;
78209;SDS011;67485;48.816;9.930;2023-02-15T17:52:55;14.83;;;8.53;;
78209;SDS011;67485;48.816;9.930;2023-02-15T17:55:22;14.75;;;8.15;;
78209;SDS011;67485;48.816;9.930;2023-02-15T17:58:10;14.13;;;7.63;;
78209;SDS011;67485;48.816;9.930;2023-02-15T18:00:39;12.20;;;7.18;;
78209;SDS011;67485;48.816;9.930;2023-02-15T18:03:28;13.90;;;7.45;;
78209;SDS011;67485;48.816;9.930;2023-02-15T18:06:21;14.50;;;8.20;;